sensor_id;sensor_type;location;lat;lon;timestamp;P1;durP1;ratioP1;P2;durP2;ratioP2
30185;SDS011;31152;49.190;8.122;2023-07-20T00:01:00;2.80;;;1.50;;
30185;SDS011;31152;49.190;8.122;2023-07-20T00:03:27;5.13;;;1.50;;
30185;SDS011;31152;49.190;8.122;2023-07-20T00:05:57;3.88;;;1.75;;
30185;SDS011;31152;49.190;8.122;2023-07-20T00:08:23;4.30;;;1.52;;
30185;SDS011;31152;49.190;8.122;2023-07-20T00:10:50;2.72;;;1.58;;
30185;SDS011;31152;49.190;8.122;2023-07-20T00:13:19;3.33;;;1.83;;
30185;SDS011;31152;49.190;8.122;2023-07-20T00:15:48;3.78;;;2.00;;
30185;SDS011;31152;49.190;8.122;2023-07-20T00:18:15;3.03;;;1.52;;
30185;SDS011;31152;49.190;8.122;2023-07-20T00:20:42;5.15;;;1.90;;
30185;SDS011;31152;49.190;8.122;2023-07-20T00:23:08;5.40;;;1.50;;
30185;SDS011;31152;49.190;8.122;2023-07-20T00:25:35;6.03;;;1.70;;
30185;SDS011;31152;49.190;8.122;2023-07-20T00:28:02;5.22;;;1.60;;
30185;SDS011;31152;49.190;8.122;2023-07-20T00:30:29;2.97;;;1.63;;
30185;SDS011;31152;49.190;8.122;2023-07-20T00:32:56;7.18;;;1.98;;
30185;SDS011;31152;49.190;8.122;2023-07-20T00:35:25;4.65;;;1.60;;
30185;SDS011;31152;49.190;8.122;2023-07-20T00:37:51;5.07;;;2.10;;
30185;SDS011;31152;49.190;8.122;2023-07-20T00:40:18;3.10;;;1.67;;
30185;SDS011;31152;49.190;8.122;2023-07-20T00:42:49;13.77;;;2.00;;
30185;SDS011;31152;49.190;8.122;2023-07-20T00:45:16;3.40;;;1.60;;
30185;SDS011;31152;49.190;8.122;2023-07-20T00:47:43;4.57;;;1.90;;
30185;SDS011;31152;49.190;8.122;2023-07-20T00:50:10;5.40;;;1.88;;
30185;SDS011;31152;49.190;8.122;2023-07-20T00:52:37;5.38;;;2.00;;
30185;SDS011;31152;49.190;8.122;2023-07-20T00:55:07;6.63;;;1.85;;
30185;SDS011;31152;49.190;8.122;2023-07-20T00:57:35;3.72;;;1.77;;
30185;SDS011;31152;49.190;8.122;2023-07-20T01:00:02;4.82;;;1.75;;
30185;SDS011;31152;49.190;8.122;2023-07-20T01:02:31;3.72;;;1.88;;
30185;SDS011;31152;49.190;8.122;2023-07-20T01:04:58;4.97;;;2.00;;
30185;SDS011;31152;49.190;8.122;2023-07-20T01:07:28;3.80;;;1.98;;
30185;SDS011;31152;49.190;8.122;2023-07-20T01:10:02;3.97;;;1.58;;
30185;SDS011;31152;49.190;8.122;2023-07-20T01:15:08;7.35;;;1.95;;
30185;SDS011;31152;49.190;8.122;2023-07-20T01:17:36;6.05;;;2.08;;
30185;SDS011;31152;49.190;8.122;2023-07-20T01:20:05;3.50;;;1.88;;
30185;SDS011;31152;49.190;8.122;2023-07-20T01:23:22;3.60;;;1.55;;
30185;SDS011;31152;49.190;8.122;2023-07-20T01:33:58;3.75;;;1.88;;
30185;SDS011;31152;49.190;8.122;2023-07-20T01:36:33;4.00;;;1.70;;
30185;SDS011;31152;49.190;8.122;2023-07-20T01:39:02;4.28;;;1.73;;
30185;SDS011;31152;49.190;8.122;2023-07-20T01:41:31;4.35;;;1.83;;
30185;SDS011;31152;49.190;8.122;2023-07-20T01:44:00;4.15;;;1.67;;
30185;SDS011;31152;49.190;8.122;2023-07-20T01:46:27;5.53;;;1.67;;
30185;SDS011;31152;49.190;8.122;2023-07-20T01:48:54;3.92;;;1.80;;
30185;SDS011;31152;49.190;8.122;2023-07-20T01:51:23;3.30;;;1.92;;
30185;SDS011;31152;49.190;8.122;2023-07-20T01:53:50;2.85;;;1.50;;
30185;SDS011;31152;49.190;8.122;2023-07-20T01:56:17;2.65;;;1.70;;
30185;SDS011;31152;49.190;8.122;2023-07-20T01:58:44;3.92;;;1.73;;
30185;SDS011;31152;49.190;8.122;2023-07-20T02:01:11;3.25;;;1.75;;
30185;SDS011;31152;49.190;8.122;2023-07-20T02:03:37;4.13;;;1.80;;
30185;SDS011;31152;49.190;8.122;2023-07-20T02:06:04;2.85;;;1.50;;
30185;SDS011;31152;49.190;8.122;2023-07-20T02:08:36;6.78;;;1.67;;
30185;SDS011;31152;49.190;8.122;2023-07-20T02:11:03;5.32;;;1.90;;
30185;SDS011;31152;49.190;8.122;2023-07-20T02:13:31;4.07;;;1.50;;
30185;SDS011;31152;49.190;8.122;2023-07-20T02:15:57;5.03;;;1.80;;
30185;SDS011;31152;49.190;8.122;2023-07-20T02:18:24;7.75;;;1.92;;
30185;SDS011;31152;49.190;8.122;2023-07-20T02:20:52;2.83;;;1.63;;
30185;SDS011;31152;49.190;8.122;2023-07-20T02:23:22;2.60;;;1.75;;
30185;SDS011;31152;49.190;8.122;2023-07-20T02:25:51;2.47;;;1.63;;
30185;SDS011;31152;49.190;8.122;2023-07-20T02:28:18;6.88;;;1.63;;
30185;SDS011;31152;49.190;8.122;2023-07-20T02:30:47;4.82;;;2.08;;
30185;SDS011;31152;49.190;8.122;2023-07-20T02:33:15;5.30;;;1.90;;
30185;SDS011;31152;49.190;8.122;2023-07-20T02:35:42;5.90;;;1.77;;
30185;SDS011;31152;49.190;8.122;2023-07-20T02:38:09;3.67;;;1.80;;
30185;SDS011;31152;49.190;8.122;2023-07-20T02:40:35;6.13;;;1.80;;
30185;SDS011;31152;49.190;8.122;2023-07-20T02:43:02;4.53;;;1.92;;
30185;SDS011;31152;49.190;8.122;2023-07-20T02:45:29;6.97;;;2.40;;
30185;SDS011;31152;49.190;8.122;2023-07-20T02:47:55;6.15;;;2.13;;
30185;SDS011;31152;49.190;8.122;2023-07-20T02:50:22;4.25;;;2.20;;
30185;SDS011;31152;49.190;8.122;2023-07-20T02:52:49;3.45;;;1.92;;
30185;SDS011;31152;49.190;8.122;2023-07-20T02:55:16;4.53;;;1.98;;
30185;SDS011;31152;49.190;8.122;2023-07-20T02:57:43;3.65;;;1.95;;
30185;SDS011;31152;49.190;8.122;2023-07-20T03:00:10;7.13;;;2.13;;
30185;SDS011;31152;49.190;8.122;2023-07-20T03:02:37;3.85;;;1.73;;
30185;SDS011;31152;49.190;8.122;2023-07-20T03:05:05;5.28;;;2.15;;
30185;SDS011;31152;49.190;8.122;2023-07-20T03:07:33;4.00;;;2.13;;
30185;SDS011;31152;49.190;8.122;2023-07-20T03:10:02;4.60;;;1.98;;
30185;SDS011;31152;49.190;8.122;2023-07-20T03:12:29;5.40;;;2.30;;
30185;SDS011;31152;49.190;8.122;2023-07-20T03:14:56;3.97;;;1.60;;
30185;SDS011;31152;49.190;8.122;2023-07-20T03:17:23;6.43;;;1.92;;
30185;SDS011;31152;49.190;8.122;2023-07-20T03:19:50;4.90;;;2.20;;
30185;SDS011;31152;49.190;8.122;2023-07-20T03:22:16;8.45;;;2.42;;
30185;SDS011;31152;49.190;8.122;2023-07-20T03:24:47;3.08;;;1.85;;
30185;SDS011;31152;49.190;8.122;2023-07-20T03:27:16;5.95;;;2.22;;
30185;SDS011;31152;49.190;8.122;2023-07-20T03:29:46;3.50;;;1.98;;
30185;SDS011;31152;49.190;8.122;2023-07-20T03:32:15;5.43;;;2.17;;
30185;SDS011;31152;49.190;8.122;2023-07-20T03:34:42;6.85;;;2.45;;
30185;SDS011;31152;49.190;8.122;2023-07-20T03:37:10;5.05;;;2.30;;
30185;SDS011;31152;49.190;8.122;2023-07-20T03:39:37;5.13;;;2.25;;
30185;SDS011;31152;49.190;8.122;2023-07-20T03:42:08;6.55;;;2.65;;
30185;SDS011;31152;49.190;8.122;2023-07-20T03:44:35;4.53;;;2.15;;
30185;SDS011;31152;49.190;8.122;2023-07-20T03:47:02;3.58;;;2.00;;
30185;SDS011;31152;49.190;8.122;2023-07-20T03:49:31;6.47;;;2.35;;
30185;SDS011;31152;49.190;8.122;2023-07-20T03:52:00;8.60;;;2.42;;
30185;SDS011;31152;49.190;8.122;2023-07-20T03:54:29;5.57;;;2.22;;
30185;SDS011;31152;49.190;8.122;2023-07-20T03:56:56;6.47;;;2.22;;
30185;SDS011;31152;49.190;8.122;2023-07-20T03:59:23;3.22;;;1.98;;
30185;SDS011;31152;49.190;8.122;2023-07-20T04:01:49;7.00;;;2.25;;
30185;SDS011;31152;49.190;8.122;2023-07-20T04:04:16;7.93;;;2.40;;
30185;SDS011;31152;49.190;8.122;2023-07-20T04:06:43;5.18;;;2.28;;
30185;SDS011;31152;49.190;8.122;2023-07-20T04:09:13;6.22;;;2.50;;
30185;SDS011;31152;49.190;8.122;2023-07-20T04:11:40;5.35;;;2.30;;
30185;SDS011;31152;49.190;8.122;2023-07-20T04:14:07;4.95;;;2.03;;
30185;SDS011;31152;49.190;8.122;2023-07-20T04:16:33;4.60;;;2.00;;
30185;SDS011;31152;49.190;8.122;2023-07-20T04:19:00;5.47;;;2.30;;
30185;SDS011;31152;49.190;8.122;2023-07-20T04:21:27;8.05;;;2.75;;
30185;SDS011;31152;49.190;8.122;2023-07-20T04:23:54;5.13;;;2.70;;
30185;SDS011;31152;49.190;8.122;2023-07-20T04:26:21;5.88;;;2.45;;
30185;SDS011;31152;49.190;8.122;2023-07-20T04:28:50;5.93;;;2.33;;
30185;SDS011;31152;49.190;8.122;2023-07-20T04:31:19;6.30;;;2.70;;
30185;SDS011;31152;49.190;8.122;2023-07-20T04:33:45;8.07;;;2.67;;
30185;SDS011;31152;49.190;8.122;2023-07-20T04:36:12;6.78;;;2.35;;
30185;SDS011;31152;49.190;8.122;2023-07-20T04:38:45;6.60;;;2.10;;
30185;SDS011;31152;49.190;8.122;2023-07-20T04:41:12;5.50;;;2.30;;
30185;SDS011;31152;49.190;8.122;2023-07-20T04:43:42;5.03;;;2.78;;
30185;SDS011;31152;49.190;8.122;2023-07-20T04:46:12;5.10;;;2.53;;
30185;SDS011;31152;49.190;8.122;2023-07-20T04:48:39;8.77;;;2.67;;
30185;SDS011;31152;49.190;8.122;2023-07-20T04:51:08;5.85;;;2.50;;
30185;SDS011;31152;49.190;8.122;2023-07-20T04:53:36;7.28;;;2.58;;
30185;SDS011;31152;49.190;8.122;2023-07-20T04:56:05;8.13;;;2.88;;
30185;SDS011;31152;49.190;8.122;2023-07-20T04:58:32;6.47;;;2.30;;
30185;SDS011;31152;49.190;8.122;2023-07-20T05:00:58;5.00;;;1.88;;
30185;SDS011;31152;49.190;8.122;2023-07-20T05:03:25;4.93;;;2.35;;
30185;SDS011;31152;49.190;8.122;2023-07-20T05:05:53;6.28;;;2.15;;
30185;SDS011;31152;49.190;8.122;2023-07-20T05:08:22;6.45;;;2.60;;
30185;SDS011;31152;49.190;8.122;2023-07-20T05:10:49;6.45;;;2.85;;
30185;SDS011;31152;49.190;8.122;2023-07-20T05:13:16;7.50;;;2.72;;
30185;SDS011;31152;49.190;8.122;2023-07-20T05:15:43;7.15;;;2.60;;
30185;SDS011;31152;49.190;8.122;2023-07-20T05:18:09;6.00;;;2.58;;
30185;SDS011;31152;49.190;8.122;2023-07-20T05:20:36;3.55;;;2.03;;
30185;SDS011;31152;49.190;8.122;2023-07-20T05:23:05;7.05;;;2.38;;
30185;SDS011;31152;49.190;8.122;2023-07-20T05:25:32;6.25;;;2.40;;
30185;SDS011;31152;49.190;8.122;2023-07-20T05:27:59;6.68;;;2.67;;
30185;SDS011;31152;49.190;8.122;2023-07-20T05:30:26;7.75;;;2.75;;
30185;SDS011;31152;49.190;8.122;2023-07-20T05:32:55;5.63;;;2.47;;
30185;SDS011;31152;49.190;8.122;2023-07-20T05:35:22;5.43;;;2.30;;
30185;SDS011;31152;49.190;8.122;2023-07-20T05:37:49;5.28;;;2.33;;
30185;SDS011;31152;49.190;8.122;2023-07-20T05:40:16;4.18;;;2.50;;
30185;SDS011;31152;49.190;8.122;2023-07-20T05:42:45;7.13;;;2.03;;
30185;SDS011;31152;49.190;8.122;2023-07-20T05:45:14;4.07;;;2.17;;
30185;SDS011;31152;49.190;8.122;2023-07-20T05:47:41;5.75;;;2.38;;
30185;SDS011;31152;49.190;8.122;2023-07-20T05:50:08;10.18;;;2.70;;
30185;SDS011;31152;49.190;8.122;2023-07-20T05:52:36;5.25;;;2.45;;
30185;SDS011;31152;49.190;8.122;2023-07-20T05:55:05;6.82;;;2.15;;
30185;SDS011;31152;49.190;8.122;2023-07-20T05:57:33;4.20;;;2.22;;
30185;SDS011;31152;49.190;8.122;2023-07-20T06:00:00;7.20;;;2.95;;
30185;SDS011;31152;49.190;8.122;2023-07-20T06:02:29;5.95;;;2.20;;
30185;SDS011;31152;49.190;8.122;2023-07-20T06:04:56;5.00;;;2.50;;
30185;SDS011;31152;49.190;8.122;2023-07-20T06:07:23;6.30;;;2.13;;
30185;SDS011;31152;49.190;8.122;2023-07-20T06:09:50;11.27;;;2.78;;
30185;SDS011;31152;49.190;8.122;2023-07-20T06:12:17;5.00;;;2.38;;
30185;SDS011;31152;49.190;8.122;2023-07-20T06:14:44;6.47;;;2.60;;
30185;SDS011;31152;49.190;8.122;2023-07-20T06:17:10;7.07;;;2.67;;
30185;SDS011;31152;49.190;8.122;2023-07-20T06:19:38;3.20;;;2.40;;
30185;SDS011;31152;49.190;8.122;2023-07-20T06:22:05;7.20;;;2.50;;
30185;SDS011;31152;49.190;8.122;2023-07-20T06:24:31;5.30;;;2.60;;
30185;SDS011;31152;49.190;8.122;2023-07-20T06:26:58;5.65;;;2.42;;
30185;SDS011;31152;49.190;8.122;2023-07-20T06:29:25;5.72;;;2.22;;
30185;SDS011;31152;49.190;8.122;2023-07-20T06:31:51;6.22;;;2.53;;
30185;SDS011;31152;49.190;8.122;2023-07-20T06:34:23;9.00;;;2.92;;
30185;SDS011;31152;49.190;8.122;2023-07-20T06:36:50;7.85;;;2.42;;
30185;SDS011;31152;49.190;8.122;2023-07-20T06:39:21;5.38;;;2.50;;
30185;SDS011;31152;49.190;8.122;2023-07-20T06:41:51;9.48;;;2.80;;
30185;SDS011;31152;49.190;8.122;2023-07-20T06:44:21;8.68;;;2.70;;
30185;SDS011;31152;49.190;8.122;2023-07-20T06:46:50;5.28;;;2.40;;
30185;SDS011;31152;49.190;8.122;2023-07-20T06:49:23;3.45;;;2.20;;
30185;SDS011;31152;49.190;8.122;2023-07-20T06:51:52;5.75;;;2.10;;
30185;SDS011;31152;49.190;8.122;2023-07-20T06:54:19;8.48;;;2.33;;
30185;SDS011;31152;49.190;8.122;2023-07-20T06:56:49;8.05;;;1.90;;
30185;SDS011;31152;49.190;8.122;2023-07-20T06:59:36;6.72;;;1.90;;
30185;SDS011;31152;49.190;8.122;2023-07-20T07:02:07;4.93;;;2.10;;
30185;SDS011;31152;49.190;8.122;2023-07-20T07:04:40;4.67;;;1.67;;
30185;SDS011;31152;49.190;8.122;2023-07-20T07:07:08;5.75;;;1.77;;
30185;SDS011;31152;49.190;8.122;2023-07-20T07:09:35;4.78;;;1.90;;
30185;SDS011;31152;49.190;8.122;2023-07-20T07:12:03;5.68;;;1.98;;
30185;SDS011;31152;49.190;8.122;2023-07-20T07:14:30;8.05;;;2.20;;
30185;SDS011;31152;49.190;8.122;2023-07-20T07:16:58;5.90;;;1.85;;
30185;SDS011;31152;49.190;8.122;2023-07-20T07:19:30;3.75;;;1.73;;
30185;SDS011;31152;49.190;8.122;2023-07-20T07:21:57;3.72;;;2.15;;
30185;SDS011;31152;49.190;8.122;2023-07-20T07:24:25;3.22;;;1.70;;
30185;SDS011;31152;49.190;8.122;2023-07-20T07:26:55;6.13;;;2.45;;
30185;SDS011;31152;49.190;8.122;2023-07-20T07:29:22;3.42;;;2.05;;
30185;SDS011;31152;49.190;8.122;2023-07-20T07:31:48;6.30;;;1.83;;
30185;SDS011;31152;49.190;8.122;2023-07-20T07:34:15;3.20;;;1.65;;
30185;SDS011;31152;49.190;8.122;2023-07-20T07:36:42;8.23;;;2.25;;
30185;SDS011;31152;49.190;8.122;2023-07-20T07:39:10;3.22;;;1.80;;
30185;SDS011;31152;49.190;8.122;2023-07-20T07:41:40;2.00;;;1.58;;
30185;SDS011;31152;49.190;8.122;2023-07-20T07:44:06;6.38;;;1.77;;
30185;SDS011;31152;49.190;8.122;2023-07-20T07:46:33;5.60;;;1.98;;
30185;SDS011;31152;49.190;8.122;2023-07-20T07:49:00;3.60;;;1.83;;
30185;SDS011;31152;49.190;8.122;2023-07-20T07:51:27;3.42;;;1.70;;
30185;SDS011;31152;49.190;8.122;2023-07-20T07:53:54;4.80;;;2.17;;
30185;SDS011;31152;49.190;8.122;2023-07-20T07:56:23;6.57;;;1.90;;
30185;SDS011;31152;49.190;8.122;2023-07-20T07:58:51;4.53;;;1.77;;
30185;SDS011;31152;49.190;8.122;2023-07-20T08:01:20;7.30;;;1.67;;
30185;SDS011;31152;49.190;8.122;2023-07-20T08:03:49;12.00;;;2.08;;
30185;SDS011;31152;49.190;8.122;2023-07-20T08:06:18;4.72;;;1.67;;
30185;SDS011;31152;49.190;8.122;2023-07-20T08:08:48;7.05;;;1.90;;
30185;SDS011;31152;49.190;8.122;2023-07-20T08:11:15;4.60;;;1.88;;
30185;SDS011;31152;49.190;8.122;2023-07-20T08:13:44;5.13;;;2.10;;
30185;SDS011;31152;49.190;8.122;2023-07-20T08:16:10;6.30;;;1.95;;
30185;SDS011;31152;49.190;8.122;2023-07-20T08:18:40;4.80;;;2.00;;
30185;SDS011;31152;49.190;8.122;2023-07-20T08:21:07;3.80;;;1.58;;
30185;SDS011;31152;49.190;8.122;2023-07-20T08:23:34;3.05;;;1.48;;
30185;SDS011;31152;49.190;8.122;2023-07-20T08:26:03;5.00;;;1.70;;
30185;SDS011;31152;49.190;8.122;2023-07-20T08:28:32;5.28;;;1.83;;
30185;SDS011;31152;49.190;8.122;2023-07-20T08:31:00;7.45;;;1.95;;
30185;SDS011;31152;49.190;8.122;2023-07-20T08:33:27;4.78;;;1.50;;
30185;SDS011;31152;49.190;8.122;2023-07-20T08:35:55;7.50;;;1.83;;
30185;SDS011;31152;49.190;8.122;2023-07-20T08:38:23;4.03;;;1.67;;
30185;SDS011;31152;49.190;8.122;2023-07-20T08:40:50;3.78;;;2.10;;
30185;SDS011;31152;49.190;8.122;2023-07-20T08:43:20;6.45;;;1.70;;
30185;SDS011;31152;49.190;8.122;2023-07-20T08:45:47;6.43;;;2.10;;
30185;SDS011;31152;49.190;8.122;2023-07-20T08:48:16;3.60;;;2.00;;
30185;SDS011;31152;49.190;8.122;2023-07-20T08:50:44;4.22;;;1.60;;
30185;SDS011;31152;49.190;8.122;2023-07-20T08:53:13;6.40;;;2.00;;
30185;SDS011;31152;49.190;8.122;2023-07-20T08:55:41;5.57;;;2.05;;
30185;SDS011;31152;49.190;8.122;2023-07-20T08:58:12;6.15;;;2.10;;
30185;SDS011;31152;49.190;8.122;2023-07-20T09:00:41;11.23;;;1.83;;
30185;SDS011;31152;49.190;8.122;2023-07-20T09:03:11;4.40;;;1.85;;
30185;SDS011;31152;49.190;8.122;2023-07-20T09:05:41;5.03;;;1.40;;
30185;SDS011;31152;49.190;8.122;2023-07-20T09:08:08;5.55;;;1.70;;
30185;SDS011;31152;49.190;8.122;2023-07-20T09:10:35;5.28;;;1.63;;
30185;SDS011;31152;49.190;8.122;2023-07-20T09:13:01;5.88;;;1.60;;
30185;SDS011;31152;49.190;8.122;2023-07-20T09:15:28;5.75;;;1.50;;
30185;SDS011;31152;49.190;8.122;2023-07-20T09:17:56;5.28;;;1.98;;
30185;SDS011;31152;49.190;8.122;2023-07-20T09:20:27;2.20;;;1.48;;
30185;SDS011;31152;49.190;8.122;2023-07-20T09:22:59;4.43;;;1.67;;
30185;SDS011;31152;49.190;8.122;2023-07-20T09:25:30;4.40;;;1.55;;
30185;SDS011;31152;49.190;8.122;2023-07-20T09:27:57;3.88;;;1.60;;
30185;SDS011;31152;49.190;8.122;2023-07-20T09:30:32;3.30;;;1.40;;
30185;SDS011;31152;49.190;8.122;2023-07-20T09:33:01;4.45;;;1.42;;
30185;SDS011;31152;49.190;8.122;2023-07-20T09:35:51;4.78;;;1.63;;
30185;SDS011;31152;49.190;8.122;2023-07-20T09:38:21;7.25;;;1.65;;
30185;SDS011;31152;49.190;8.122;2023-07-20T09:40:50;4.15;;;1.80;;
30185;SDS011;31152;49.190;8.122;2023-07-20T09:43:22;3.03;;;1.30;;
30185;SDS011;31152;49.190;8.122;2023-07-20T09:45:51;2.95;;;1.38;;
30185;SDS011;31152;49.190;8.122;2023-07-20T09:48:24;5.68;;;1.50;;
30185;SDS011;31152;49.190;8.122;2023-07-20T09:50:55;6.18;;;2.47;;
30185;SDS011;31152;49.190;8.122;2023-07-20T09:53:23;2.88;;;1.38;;
30185;SDS011;31152;49.190;8.122;2023-07-20T09:55:54;2.83;;;1.50;;
30185;SDS011;31152;49.190;8.122;2023-07-20T09:58:27;2.30;;;1.48;;
30185;SDS011;31152;49.190;8.122;2023-07-20T10:00:56;3.53;;;1.67;;
30185;SDS011;31152;49.190;8.122;2023-07-20T10:03:30;4.95;;;1.38;;
30185;SDS011;31152;49.190;8.122;2023-07-20T10:06:03;6.82;;;1.52;;
30185;SDS011;31152;49.190;8.122;2023-07-20T10:08:34;2.72;;;1.38;;
30185;SDS011;31152;49.190;8.122;2023-07-20T10:11:09;3.40;;;1.58;;
30185;SDS011;31152;49.190;8.122;2023-07-20T10:13:39;3.33;;;1.60;;
30185;SDS011;31152;49.190;8.122;2023-07-20T10:16:11;3.88;;;1.48;;
30185;SDS011;31152;49.190;8.122;2023-07-20T10:18:46;4.68;;;1.40;;
30185;SDS011;31152;49.190;8.122;2023-07-20T10:21:21;2.85;;;1.40;;
30185;SDS011;31152;49.190;8.122;2023-07-20T10:23:54;3.25;;;1.20;;
30185;SDS011;31152;49.190;8.122;2023-07-20T10:26:24;2.47;;;1.40;;
30185;SDS011;31152;49.190;8.122;2023-07-20T10:28:52;4.45;;;1.15;;
30185;SDS011;31152;49.190;8.122;2023-07-20T10:31:20;3.42;;;1.40;;
30185;SDS011;31152;49.190;8.122;2023-07-20T10:33:49;5.65;;;1.60;;
30185;SDS011;31152;49.190;8.122;2023-07-20T10:36:17;4.85;;;1.52;;
30185;SDS011;31152;49.190;8.122;2023-07-20T10:38:57;4.03;;;1.63;;
30185;SDS011;31152;49.190;8.122;2023-07-20T10:41:34;2.03;;;1.30;;
30185;SDS011;31152;49.190;8.122;2023-07-20T10:44:02;1.50;;;1.15;;
30185;SDS011;31152;49.190;8.122;2023-07-20T10:46:35;4.20;;;1.98;;
30185;SDS011;31152;49.190;8.122;2023-07-20T10:49:10;4.80;;;1.63;;
30185;SDS011;31152;49.190;8.122;2023-07-20T10:51:41;6.88;;;1.75;;
30185;SDS011;31152;49.190;8.122;2023-07-20T10:56:47;3.58;;;1.50;;
30185;SDS011;31152;49.190;8.122;2023-07-20T10:59:18;3.88;;;1.50;;
30185;SDS011;31152;49.190;8.122;2023-07-20T11:01:46;3.50;;;1.20;;
30185;SDS011;31152;49.190;8.122;2023-07-20T11:04:19;3.85;;;1.50;;
30185;SDS011;31152;49.190;8.122;2023-07-20T11:07:03;4.10;;;1.38;;
30185;SDS011;31152;49.190;8.122;2023-07-20T11:09:33;2.20;;;1.20;;
30185;SDS011;31152;49.190;8.122;2023-07-20T11:12:15;3.20;;;1.55;;
30185;SDS011;31152;49.190;8.122;2023-07-20T11:14:44;3.92;;;1.30;;
30185;SDS011;31152;49.190;8.122;2023-07-20T11:17:20;7.13;;;1.30;;
30185;SDS011;31152;49.190;8.122;2023-07-20T11:19:56;3.10;;;1.60;;
30185;SDS011;31152;49.190;8.122;2023-07-20T11:22:26;6.20;;;1.42;;
30185;SDS011;31152;49.190;8.122;2023-07-20T11:24:56;3.47;;;1.30;;
30185;SDS011;31152;49.190;8.122;2023-07-20T11:27:25;2.50;;;1.50;;
30185;SDS011;31152;49.190;8.122;2023-07-20T11:29:54;5.57;;;1.63;;
30185;SDS011;31152;49.190;8.122;2023-07-20T11:32:22;4.13;;;1.60;;
30185;SDS011;31152;49.190;8.122;2023-07-20T11:34:50;3.03;;;1.40;;
30185;SDS011;31152;49.190;8.122;2023-07-20T11:37:17;4.65;;;1.27;;
30185;SDS011;31152;49.190;8.122;2023-07-20T11:39:45;4.60;;;1.60;;
30185;SDS011;31152;49.190;8.122;2023-07-20T11:42:13;3.67;;;1.40;;
30185;SDS011;31152;49.190;8.122;2023-07-20T11:45:02;3.90;;;1.10;;
30185;SDS011;31152;49.190;8.122;2023-07-20T11:47:32;2.58;;;1.55;;
30185;SDS011;31152;49.190;8.122;2023-07-20T11:52:33;3.78;;;1.35;;
30185;SDS011;31152;49.190;8.122;2023-07-20T11:55:01;4.55;;;1.30;;
30185;SDS011;31152;49.190;8.122;2023-07-20T11:57:29;2.35;;;1.38;;
30185;SDS011;31152;49.190;8.122;2023-07-20T12:00:00;2.75;;;1.30;;
30185;SDS011;31152;49.190;8.122;2023-07-20T12:02:35;3.50;;;1.40;;
30185;SDS011;31152;49.190;8.122;2023-07-20T12:05:02;1.85;;;1.30;;
30185;SDS011;31152;49.190;8.122;2023-07-20T12:07:29;2.75;;;1.50;;
30185;SDS011;31152;49.190;8.122;2023-07-20T12:10:07;2.30;;;1.40;;
30185;SDS011;31152;49.190;8.122;2023-07-20T12:12:39;2.88;;;1.30;;
30185;SDS011;31152;49.190;8.122;2023-07-20T12:15:16;1.20;;;1.10;;
30185;SDS011;31152;49.190;8.122;2023-07-20T12:17:54;2.08;;;1.40;;
30185;SDS011;31152;49.190;8.122;2023-07-20T12:20:26;2.40;;;1.55;;
30185;SDS011;31152;49.190;8.122;2023-07-20T12:25:50;4.45;;;1.50;;
30185;SDS011;31152;49.190;8.122;2023-07-20T12:28:19;2.58;;;1.33;;
30185;SDS011;31152;49.190;8.122;2023-07-20T12:30:50;1.40;;;1.30;;
30185;SDS011;31152;49.190;8.122;2023-07-20T12:33:22;1.80;;;1.13;;
30185;SDS011;31152;49.190;8.122;2023-07-20T12:35:51;2.55;;;1.30;;
30185;SDS011;31152;49.190;8.122;2023-07-20T12:38:22;2.22;;;1.20;;
30185;SDS011;31152;49.190;8.122;2023-07-20T12:40:49;2.67;;;1.40;;
30185;SDS011;31152;49.190;8.122;2023-07-20T12:43:16;6.15;;;1.35;;
30185;SDS011;31152;49.190;8.122;2023-07-20T12:45:45;4.68;;;1.65;;
30185;SDS011;31152;49.190;8.122;2023-07-20T12:48:12;4.25;;;1.25;;
30185;SDS011;31152;49.190;8.122;2023-07-20T12:50:39;1.77;;;1.20;;
30185;SDS011;31152;49.190;8.122;2023-07-20T12:53:05;5.00;;;1.50;;
30185;SDS011;31152;49.190;8.122;2023-07-20T12:55:32;1.70;;;1.00;;
30185;SDS011;31152;49.190;8.122;2023-07-20T12:57:59;3.03;;;1.42;;
30185;SDS011;31152;49.190;8.122;2023-07-20T13:00:28;3.83;;;1.10;;
30185;SDS011;31152;49.190;8.122;2023-07-20T13:02:55;1.83;;;1.00;;
30185;SDS011;31152;49.190;8.122;2023-07-20T13:05:27;2.13;;;1.10;;
30185;SDS011;31152;49.190;8.122;2023-07-20T13:08:14;2.30;;;1.30;;
30185;SDS011;31152;49.190;8.122;2023-07-20T13:10:44;4.15;;;1.30;;
30185;SDS011;31152;49.190;8.122;2023-07-20T13:13:14;3.55;;;1.35;;
30185;SDS011;31152;49.190;8.122;2023-07-20T13:15:41;7.32;;;1.23;;
30185;SDS011;31152;49.190;8.122;2023-07-20T13:18:10;5.60;;;1.42;;
30185;SDS011;31152;49.190;8.122;2023-07-20T13:20:37;3.50;;;1.40;;
30185;SDS011;31152;49.190;8.122;2023-07-20T13:23:06;3.13;;;1.27;;
30185;SDS011;31152;49.190;8.122;2023-07-20T13:25:33;3.17;;;1.23;;
30185;SDS011;31152;49.190;8.122;2023-07-20T13:28:00;2.40;;;1.70;;
30185;SDS011;31152;49.190;8.122;2023-07-20T13:30:27;1.50;;;1.17;;
30185;SDS011;31152;49.190;8.122;2023-07-20T13:32:54;2.60;;;1.38;;
30185;SDS011;31152;49.190;8.122;2023-07-20T13:35:21;2.30;;;1.35;;
30185;SDS011;31152;49.190;8.122;2023-07-20T13:37:47;3.75;;;1.80;;
30185;SDS011;31152;49.190;8.122;2023-07-20T13:40:15;2.88;;;1.50;;
30185;SDS011;31152;49.190;8.122;2023-07-20T13:42:45;4.72;;;1.40;;
30185;SDS011;31152;49.190;8.122;2023-07-20T13:45:12;4.25;;;1.38;;
30185;SDS011;31152;49.190;8.122;2023-07-20T13:47:40;2.70;;;1.40;;
30185;SDS011;31152;49.190;8.122;2023-07-20T13:50:11;2.13;;;1.33;;
30185;SDS011;31152;49.190;8.122;2023-07-20T13:52:52;3.38;;;1.83;;
30185;SDS011;31152;49.190;8.122;2023-07-20T13:55:38;3.65;;;1.85;;
30185;SDS011;31152;49.190;8.122;2023-07-20T13:58:09;4.18;;;2.20;;
30185;SDS011;31152;49.190;8.122;2023-07-20T14:00:39;3.95;;;1.35;;
30185;SDS011;31152;49.190;8.122;2023-07-20T14:03:07;5.22;;;1.50;;
30185;SDS011;31152;49.190;8.122;2023-07-20T14:05:37;2.28;;;1.50;;
30185;SDS011;31152;49.190;8.122;2023-07-20T14:08:06;2.17;;;1.20;;
30185;SDS011;31152;49.190;8.122;2023-07-20T14:10:35;2.60;;;1.20;;
30185;SDS011;31152;49.190;8.122;2023-07-20T14:13:10;3.35;;;1.60;;
30185;SDS011;31152;49.190;8.122;2023-07-20T14:15:38;3.58;;;1.38;;
30185;SDS011;31152;49.190;8.122;2023-07-20T14:18:05;1.20;;;1.08;;
30185;SDS011;31152;49.190;8.122;2023-07-20T14:20:34;5.10;;;1.60;;
30185;SDS011;31152;49.190;8.122;2023-07-20T14:23:04;2.03;;;1.10;;
30185;SDS011;31152;49.190;8.122;2023-07-20T14:25:31;2.75;;;1.50;;
30185;SDS011;31152;49.190;8.122;2023-07-20T14:28:03;2.33;;;1.40;;
30185;SDS011;31152;49.190;8.122;2023-07-20T14:30:32;3.00;;;1.80;;
30185;SDS011;31152;49.190;8.122;2023-07-20T14:33:01;2.90;;;1.30;;
30185;SDS011;31152;49.190;8.122;2023-07-20T14:35:28;2.15;;;1.52;;
30185;SDS011;31152;49.190;8.122;2023-07-20T14:37:57;2.95;;;1.67;;
30185;SDS011;31152;49.190;8.122;2023-07-20T14:40:26;5.47;;;1.52;;
30185;SDS011;31152;49.190;8.122;2023-07-20T14:42:53;4.20;;;1.77;;
30185;SDS011;31152;49.190;8.122;2023-07-20T14:45:21;4.82;;;1.83;;
30185;SDS011;31152;49.190;8.122;2023-07-20T14:47:50;2.13;;;1.40;;
30185;SDS011;31152;49.190;8.122;2023-07-20T14:50:25;2.50;;;1.25;;
30185;SDS011;31152;49.190;8.122;2023-07-20T14:52:52;3.97;;;1.40;;
30185;SDS011;31152;49.190;8.122;2023-07-20T14:55:21;2.33;;;1.38;;
30185;SDS011;31152;49.190;8.122;2023-07-20T14:57:48;5.65;;;2.60;;
30185;SDS011;31152;49.190;8.122;2023-07-20T15:00:15;2.47;;;1.80;;
30185;SDS011;31152;49.190;8.122;2023-07-20T15:02:42;2.10;;;1.33;;
30185;SDS011;31152;49.190;8.122;2023-07-20T15:05:10;7.50;;;2.03;;
30185;SDS011;31152;49.190;8.122;2023-07-20T15:07:37;1.80;;;1.27;;
30185;SDS011;31152;49.190;8.122;2023-07-20T15:10:04;2.55;;;1.60;;
30185;SDS011;31152;49.190;8.122;2023-07-20T15:12:32;1.80;;;1.33;;
30185;SDS011;31152;49.190;8.122;2023-07-20T15:15:04;1.90;;;1.60;;
30185;SDS011;31152;49.190;8.122;2023-07-20T15:17:32;2.05;;;1.40;;